Time;durP1;ratioP1;P1;durP2;ratioP2;P2;SDS_P1;SDS_P2;PMS_P1;PMS_P2;Temp;Humidity;BMP_temperature;BMP_pressure;BME280_temperature;BME280_humidity;BME280_pressure;Samples;Min_cycle;Max_cycle;Signal;HPM_P1;HPM_P2
2022/10/26 00:01:44;;;;;;;;;;;15.20;72.30;;;;;;5095223;28;20582;-80
2022/10/26 00:04:10;;;;;;;;;;;15.10;72.30;;;;;;5089774;28;20308;-82
2022/10/26 00:06:36;;;;;;;;;;;15.10;72.30;;;;;;5094166;28;19927;-81
2022/10/26 00:09:01;;;;;;;;;;;15.10;72.40;;;;;;5108291;28;19923;-80
2022/10/26 00:11:27;;;;;;;;;;;15.10;72.40;;;;;;5072022;28;19916;-81
2022/10/26 00:13:53;;;;;;;;;;;15.10;72.40;;;;;;5109730;28;19931;-80
2022/10/26 00:16:24;;;;;;;;;;;15.10;72.40;;;;;;5062646;28;20296;-81
2022/10/26 00:18:49;;;;;;;;;;;15.10;72.50;;;;;;5088463;28;20322;-80
2022/10/26 00:21:15;;;;;;;;;;;15.00;72.40;;;;;;5087242;28;19920;-81
2022/10/26 00:23:41;;;;;;;;;;;15.10;72.50;;;;;;5099966;28;20342;-80
2022/10/26 00:26:07;;;;;;;;;;;15.00;72.40;;;;;;5099471;28;20003;-81
2022/10/26 00:28:33;;;;;;;;;;;15.00;73.10;;;;;;5099226;28;19924;-80
2022/10/26 00:31:03;;;;;;;;;;;15.00;72.50;;;;;;5077142;28;20074;-80
2022/10/26 00:33:30;;;;;;;;;;;15.00;72.50;;;;;;5106575;27;19912;-80
2022/10/26 00:35:55;;;;;;;;;;;15.00;72.50;;;;;;5093183;28;19908;-81
2022/10/26 00:38:21;;;;;;;;;;;15.00;72.50;;;;;;5091654;28;20300;-80
2022/10/26 00:40:46;;;;;;;;;;;15.00;72.50;;;;;;5092760;28;19968;-80
2022/10/26 00:43:14;;;;;;;;;;;15.00;73.20;;;;;;5112758;28;19920;-81
2022/10/26 00:45:41;;;;;;;;;;;15.00;72.60;;;;;;5102827;28;19916;-80
2022/10/26 00:48:09;;;;;;;;;;;15.00;73.20;;;;;;5093692;28;19923;-81
2022/10/26 00:50:39;;;;;;;;;;;14.90;72.60;;;;;;5091632;28;19909;-80
2022/10/26 00:53:05;;;;;;;;;;;14.90;72.90;;;;;;5087450;28;19919;-80
2022/10/26 00:55:32;;;;;;;;;;;14.90;72.60;;;;;;5101421;28;20422;-81
2022/10/26 00:57:59;;;;;;;;;;;14.90;72.60;;;;;;5100236;28;20019;-81
2022/10/26 01:00:24;;;;;;;;;;;14.90;72.60;;;;;;5101888;28;19916;-80
2022/10/26 01:02:51;;;;;;;;;;;14.90;72.70;;;;;;5092197;28;21209;-80
2022/10/26 01:05:18;;;;;;;;;;;14.90;72.70;;;;;;5097922;28;20011;-80
2022/10/26 01:07:44;;;;;;;;;;;14.90;72.70;;;;;;5105435;28;19919;-80
2022/10/26 01:10:10;;;;;;;;;;;14.90;72.70;;;;;;5090705;28;20014;-81
2022/10/26 01:12:36;;;;;;;;;;;14.90;72.70;;;;;;5085920;28;20010;-80
2022/10/26 01:15:02;;;;;;;;;;;14.90;72.70;;;;;;5105751;28;19920;-80
2022/10/26 01:17:40;;;;;;;;;;;14.90;72.70;;;;;;5098576;28;19912;-80
2022/10/26 01:20:24;;;;;;;;;;;14.90;72.80;;;;;;5098828;28;19922;-81
2022/10/26 01:22:54;;;;;;;;;;;14.90;72.80;;;;;;5088222;28;19916;-79
2022/10/26 01:25:34;;;;;;;;;;;14.80;72.80;;;;;;5075488;28;20295;-80
2022/10/26 01:28:01;;;;;;;;;;;14.80;72.80;;;;;;5088806;28;19930;-80
2022/10/26 01:30:27;;;;;;;;;;;14.80;73.50;;;;;;5073575;28;20369;-81
2022/10/26 01:33:04;;;;;;;;;;;14.80;72.80;;;;;;5086483;28;19918;-81
2022/10/26 01:35:29;;;;;;;;;;;14.80;72.80;;;;;;5083747;28;19944;-81
2022/10/26 01:37:57;;;;;;;;;;;14.80;72.90;;;;;;5097944;28;20425;-84
2022/10/26 01:40:29;;;;;;;;;;;14.80;72.90;;;;;;5083364;28;19939;-81
2022/10/26 01:42:57;;;;;;;;;;;14.80;72.90;;;;;;5097315;28;19912;-85
2022/10/26 01:45:24;;;;;;;;;;;14.80;72.90;;;;;;5094973;28;19920;-80
2022/10/26 01:47:51;;;;;;;;;;;14.80;72.90;;;;;;5093767;28;19961;-81
2022/10/26 01:50:17;;;;;;;;;;;14.80;72.90;;;;;;5105496;28;19962;-79
2022/10/26 01:52:43;;;;;;;;;;;14.80;72.90;;;;;;5081003;28;19923;-81
2022/10/26 01:55:28;;;;;;;;;;;14.80;72.90;;;;;;5077353;28;19939;-80
2022/10/26 01:58:02;;;;;;;;;;;14.80;72.90;;;;;;5080201;28;20445;-80
2022/10/26 02:00:29;;;;;;;;;;;14.80;72.90;;;;;;5093708;28;19916;-80
2022/10/26 02:03:21;;;;;;;;;;;14.80;73.00;;;;;;5102609;28;19912;-80
2022/10/26 02:05:58;;;;;;;;;;;14.80;73.00;;;;;;5062173;28;19970;-80
2022/10/26 02:08:44;;;;;;;;;;;14.80;73.00;;;;;;5079066;28;20014;-80
2022/10/26 02:11:18;;;;;;;;;;;14.80;73.00;;;;;;5112815;27;19969;-79
2022/10/26 02:13:44;;;;;;;;;;;14.80;73.00;;;;;;5100886;28;19919;-80
2022/10/26 02:16:10;;;;;;;;;;;14.80;73.00;;;;;;5103743;28;19912;-81
2022/10/26 02:18:47;;;;;;;;;;;14.80;73.00;;;;;;5086039;28;19916;-80
2022/10/26 02:21:16;;;;;;;;;;;14.80;73.00;;;;;;5103114;28;19916;-80
2022/10/26 02:23:43;;;;;;;;;;;14.80;73.00;;;;;;5084653;28;19923;-80
2022/10/26 02:26:10;;;;;;;;;;;14.70;73.00;;;;;;5088095;28;19959;-80
2022/10/26 02:28:41;;;;;;;;;;;14.70;73.00;;;;;;5103111;27;20027;-81
2022/10/26 02:31:07;;;;;;;;;;;14.80;73.00;;;;;;5089124;28;20356;-81
2022/10/26 02:33:37;;;;;;;;;;;14.70;73.00;;;;;;5103337;28;19916;-80
2022/10/26 02:36:04;;;;;;;;;;;14.70;73.00;;;;;;5087225;28;20349;-79
2022/10/26 02:38:32;;;;;;;;;;;14.70;73.00;;;;;;5075222;28;19912;-80
2022/10/26 02:40:59;;;;;;;;;;;14.70;73.00;;;;;;5087550;28;20400;-81
2022/10/26 02:43:25;;;;;;;;;;;14.70;73.00;;;;;;5094852;28;19970;-80
2022/10/26 02:45:53;;;;;;;;;;;14.70;73.10;;;;;;5073134;28;19931;-82
2022/10/26 02:48:18;;;;;;;;;;;14.70;73.00;;;;;;5071628;28;19919;-80
2022/10/26 02:50:57;;;;;;;;;;;14.70;73.10;;;;;;5092149;28;19912;-82
2022/10/26 02:53:24;;;;;;;;;;;14.70;73.10;;;;;;5073867;28;19919;-80
2022/10/26 02:55:50;;;;;;;;;;;14.70;73.10;;;;;;5093284;28;19909;-82
2022/10/26 02:58:19;;;;;;;;;;;14.70;73.10;;;;;;5100431;28;19912;-80
2022/10/26 03:00:45;;;;;;;;;;;14.70;73.10;;;;;;5076862;28;19969;-80
2022/10/26 03:03:11;;;;;;;;;;;14.70;73.10;;;;;;5093137;28;19916;-80
2022/10/26 03:05:40;;;;;;;;;;;14.70;73.10;;;;;;5100786;28;19946;-81
2022/10/26 03:08:05;;;;;;;;;;;14.70;73.70;;;;;;5087237;28;19909;-80
2022/10/26 03:10:32;;;;;;;;;;;14.70;73.10;;;;;;5097616;28;20290;-78
2022/10/26 03:12:57;;;;;;;;;;;14.70;73.10;;;;;;5073323;28;20374;-80
2022/10/26 03:15:23;;;;;;;;;;;14.70;73.10;;;;;;5083916;28;19959;-80
2022/10/26 03:17:48;;;;;;;;;;;14.70;73.10;;;;;;5097208;28;19916;-81
2022/10/26 03:20:14;;;;;;;;;;;14.70;73.10;;;;;;5083015;28;19921;-80
2022/10/26 03:22:40;;;;;;;;;;;14.70;73.10;;;;;;5075295;28;19920;-80
2022/10/26 03:25:06;;;;;;;;;;;14.70;73.10;;;;;;5102406;28;19923;-80
2022/10/26 03:27:31;;;;;;;;;;;14.70;73.20;;;;;;5085194;28;20335;-80
2022/10/26 03:29:57;;;;;;;;;;;14.70;73.20;;;;;;5090525;28;19920;-80
2022/10/26 03:32:22;;;;;;;;;;;14.70;73.10;;;;;;5070185;28;19942;-82
2022/10/26 03:34:48;;;;;;;;;;;14.70;73.10;;;;;;5065985;28;20013;-80
2022/10/26 03:37:14;;;;;;;;;;;14.70;73.10;;;;;;5081200;28;19916;-80
2022/10/26 03:39:39;;;;;;;;;;;14.60;73.10;;;;;;5106919;28;19958;-80
2022/10/26 03:42:05;;;;;;;;;;;14.70;73.20;;;;;;5098995;28;19916;-80
2022/10/26 03:44:30;;;;;;;;;;;14.70;73.20;;;;;;5088883;28;19989;-80
2022/10/26 03:46:56;;;;;;;;;;;14.70;73.20;;;;;;5092692;28;19924;-81
2022/10/26 03:49:21;;;;;;;;;;;14.70;73.20;;;;;;5115213;27;19920;-80
2022/10/26 03:51:47;;;;;;;;;;;14.70;73.20;;;;;;5094284;28;19965;-79
2022/10/26 03:54:13;;;;;;;;;;;14.60;73.20;;;;;;5082310;28;20658;-80
2022/10/26 03:56:38;;;;;;;;;;;14.70;73.20;;;;;;5107407;28;19982;-80
2022/10/26 03:59:04;;;;;;;;;;;14.70;73.20;;;;;;5082318;28;19923;-80
2022/10/26 04:01:29;;;;;;;;;;;14.70;73.20;;;;;;5104178;28;19939;-80
2022/10/26 04:03:55;;;;;;;;;;;14.70;73.20;;;;;;5090106;28;20413;-81
2022/10/26 04:06:21;;;;;;;;;;;14.70;73.20;;;;;;5077143;28;19973;-80
2022/10/26 04:08:46;;;;;;;;;;;14.60;73.20;;;;;;5111659;28;20283;-79
2022/10/26 04:11:12;;;;;;;;;;;14.70;73.20;;;;;;5080951;28;19916;-80
2022/10/26 04:13:37;;;;;;;;;;;14.60;73.20;;;;;;5100100;28;19922;-80
2022/10/26 04:16:03;;;;;;;;;;;14.70;73.20;;;;;;5113834;27;19912;-81
2022/10/26 04:18:29;;;;;;;;;;;14.70;73.20;;;;;;5101779;28;20011;-80
2022/10/26 04:20:54;;;;;;;;;;;14.70;73.20;;;;;;5104813;28;19966;-81
2022/10/26 04:23:20;;;;;;;;;;;14.70;73.20;;;;;;5090262;28;19920;-81
2022/10/26 04:25:45;;;;;;;;;;;14.60;73.20;;;;;;5095402;28;19966;-81
2022/10/26 04:28:12;;;;;;;;;;;14.60;73.20;;;;;;5105895;28;19974;-80
2022/10/26 04:30:38;;;;;;;;;;;14.70;73.20;;;;;;5090630;28;19995;-79
2022/10/26 04:33:03;;;;;;;;;;;14.60;73.20;;;;;;5108180;27;20003;-81
2022/10/26 04:35:29;;;;;;;;;;;14.70;73.20;;;;;;5070960;28;19916;-79
2022/10/26 04:38:01;;;;;;;;;;;14.60;73.20;;;;;;5081530;28;19961;-79
2022/10/26 04:40:27;;;;;;;;;;;14.60;73.20;;;;;;5089364;28;19917;-82
2022/10/26 04:42:53;;;;;;;;;;;14.60;73.20;;;;;;5092202;28;19916;-80
2022/10/26 04:45:19;;;;;;;;;;;14.60;73.20;;;;;;5089075;28;20444;-79
2022/10/26 04:47:44;;;;;;;;;;;14.60;73.20;;;;;;5089535;28;19911;-80
2022/10/26 04:50:11;;;;;;;;;;;14.60;73.20;;;;;;5073444;28;19920;-79
2022/10/26 04:52:37;;;;;;;;;;;14.60;73.30;;;;;;5098652;28;20001;-80
2022/10/26 04:55:04;;;;;;;;;;;14.60;73.30;;;;;;5103045;28;19916;-80
2022/10/26 04:57:30;;;;;;;;;;;14.60;73.30;;;;;;5082308;28;19912;-81
2022/10/26 04:59:56;;;;;;;;;;;14.70;73.30;;;;;;5095411;28;19925;-81
2022/10/26 05:02:22;;;;;;;;;;;14.60;73.20;;;;;;5096481;28;19924;-80
2022/10/26 05:04:47;;;;;;;;;;;14.60;73.20;;;;;;5086538;28;19982;-80
2022/10/26 05:07:13;;;;;;;;;;;14.60;73.20;;;;;;5097034;28;19927;-81
2022/10/26 05:09:38;;;;;;;;;;;14.60;73.30;;;;;;5102903;28;19919;-80
2022/10/26 05:12:04;;;;;;;;;;;14.60;73.20;;;;;;5093734;28;19913;-80
2022/10/26 05:14:30;;;;;;;;;;;14.60;73.30;;;;;;5087556;28;19924;-80
2022/10/26 05:16:56;;;;;;;;;;;14.60;73.30;;;;;;5093426;28;19916;-80
2022/10/26 05:19:22;;;;;;;;;;;14.60;73.30;;;;;;5095912;28;19919;-80
2022/10/26 05:21:48;;;;;;;;;;;14.60;73.30;;;;;;5090163;28;20381;-80
2022/10/26 05:24:13;;;;;;;;;;;14.60;73.30;;;;;;5105527;28;19924;-80
2022/10/26 05:26:39;;;;;;;;;;;14.60;73.30;;;;;;5079223;28;19916;-79
2022/10/26 05:29:04;;;;;;;;;;;14.60;73.30;;;;;;5079832;28;19931;-80
2022/10/26 05:31:30;;;;;;;;;;;14.60;73.30;;;;;;5091086;28;20384;-79
2022/10/26 05:33:56;;;;;;;;;;;14.60;73.30;;;;;;5080436;28;20398;-80
2022/10/26 05:36:21;;;;;;;;;;;14.60;73.30;;;;;;5093729;28;19920;-80
2022/10/26 05:38:47;;;;;;;;;;;14.60;73.40;;;;;;5086125;28;19924;-81
2022/10/26 05:41:13;;;;;;;;;;;14.60;73.30;;;;;;5077200;28;20352;-81
2022/10/26 05:43:38;;;;;;;;;;;14.60;73.30;;;;;;5103732;28;19998;-81
2022/10/26 05:46:04;;;;;;;;;;;14.60;73.30;;;;;;5085637;28;19924;-80
2022/10/26 05:48:30;;;;;;;;;;;14.60;73.30;;;;;;5105149;28;19911;-80
2022/10/26 05:50:59;;;;;;;;;;;14.60;73.30;;;;;;5084366;28;19991;-80
2022/10/26 05:53:25;;;;;;;;;;;14.60;73.30;;;;;;5074278;28;20277;-80
2022/10/26 05:55:51;;;;;;;;;;;14.60;73.30;;;;;;5100801;28;19927;-80
2022/10/26 05:58:17;;;;;;;;;;;14.60;73.30;;;;;;5100466;28;19962;-80
2022/10/26 06:00:48;;;;;;;;;;;14.60;73.30;;;;;;5087928;28;19916;-79
2022/10/26 06:03:37;;;;;;;;;;;14.60;73.30;;;;;;5073483;28;19912;-80
2022/10/26 06:06:02;;;;;;;;;;;14.60;73.30;;;;;;5101969;28;19928;-80
2022/10/26 06:08:28;;;;;;;;;;;14.60;73.30;;;;;;5081722;28;19969;-80
2022/10/26 06:10:55;;;;;;;;;;;14.60;73.30;;;;;;5088498;28;19924;-81
2022/10/26 06:13:21;;;;;;;;;;;14.60;73.40;;;;;;5073886;28;19930;-81
2022/10/26 06:15:50;;;;;;;;;;;14.60;73.40;;;;;;5060580;28;19923;-80
2022/10/26 06:18:24;;;;;;;;;;;14.60;73.30;;;;;;5074235;28;20279;-80
2022/10/26 06:21:22;;;;;;;;;;;14.60;73.40;;;;;;5067406;28;20288;-80
2022/10/26 06:23:48;;;;;;;;;;;14.60;73.30;;;;;;5047615;28;20384;-80
2022/10/26 06:26:20;;;;;;;;;;;14.60;73.30;;;;;;5102612;28;19920;-81
2022/10/26 06:29:02;;;;;;;;;;;14.60;73.40;;;;;;5086556;28;19970;-80
2022/10/26 06:31:28;;;;;;;;;;;14.60;73.40;;;;;;5078151;28;19935;-80
2022/10/26 06:33:57;;;;;;;;;;;14.60;73.40;;;;;;5104723;28;20364;-81
2022/10/26 06:36:25;;;;;;;;;;;14.60;73.40;;;;;;5076337;28;20208;-80
2022/10/26 06:39:05;;;;;;;;;;;14.60;73.30;;;;;;5082891;28;19920;-81
2022/10/26 06:41:32;;;;;;;;;;;14.60;73.30;;;;;;5102676;28;19940;-81
2022/10/26 06:43:58;;;;;;;;;;;14.60;73.40;;;;;;5086361;28;19916;-79
2022/10/26 06:46:26;;;;;;;;;;;14.60;73.40;;;;;;5072390;28;20436;-81
2022/10/26 06:48:55;;;;;;;;;;;14.60;73.40;;;;;;5105015;28;20269;-81
2022/10/26 06:51:22;;;;;;;;;;;14.60;73.40;;;;;;5080606;28;19912;-81
2022/10/26 06:53:51;;;;;;;;;;;14.60;73.40;;;;;;5095204;28;19916;-81
2022/10/26 06:56:17;;;;;;;;;;;14.60;73.40;;;;;;5089613;28;19912;-81
2022/10/26 06:58:43;;;;;;;;;;;14.60;73.40;;;;;;5085924;28;19912;-81
2022/10/26 07:01:10;;;;;;;;;;;14.60;73.30;;;;;;5090442;28;19912;-80
2022/10/26 07:03:35;;;;;;;;;;;14.60;73.40;;;;;;5098028;28;20344;-81
2022/10/26 07:06:01;;;;;;;;;;;14.60;73.30;;;;;;5092016;28;19990;-82
2022/10/26 07:08:26;;;;;;;;;;;14.60;73.40;;;;;;5088872;28;19923;-81
2022/10/26 07:10:52;;;;;;;;;;;14.60;73.30;;;;;;5067505;28;19921;-80
2022/10/26 07:13:18;;;;;;;;;;;14.60;73.40;;;;;;5100313;28;19934;-81
2022/10/26 07:15:43;;;;;;;;;;;14.60;73.30;;;;;;5106425;28;19920;-82
2022/10/26 07:18:09;;;;;;;;;;;14.60;73.40;;;;;;5075193;28;19912;-81
2022/10/26 07:20:39;;;;;;;;;;;14.60;73.40;;;;;;5089919;28;20261;-81
2022/10/26 07:23:14;;;;;;;;;;;14.60;73.40;;;;;;5083262;28;19920;-82
2022/10/26 07:25:41;;;;;;;;;;;14.60;73.30;;;;;;5084786;28;19947;-81
2022/10/26 07:28:08;;;;;;;;;;;14.60;73.40;;;;;;5097612;28;19919;-82
2022/10/26 07:30:35;;;;;;;;;;;14.60;73.40;;;;;;5091130;28;20328;-81
2022/10/26 07:33:02;;;;;;;;;;;14.60;73.40;;;;;;5092071;28;20000;-81
2022/10/26 07:35:27;;;;;;;;;;;14.60;73.30;;;;;;5092297;28;19919;-81
2022/10/26 07:37:56;;;;;;;;;;;14.60;73.30;;;;;;5084481;28;19965;-81
2022/10/26 07:40:22;;;;;;;;;;;14.60;73.30;;;;;;5086003;28;20457;-81
2022/10/26 07:42:48;;;;;;;;;;;14.60;73.30;;;;;;5093570;28;20007;-81
2022/10/26 07:45:13;;;;;;;;;;;14.60;73.30;;;;;;5097965;28;19939;-81
2022/10/26 07:47:39;;;;;;;;;;;14.60;73.30;;;;;;5095366;28;19966;-82
2022/10/26 07:50:05;;;;;;;;;;;14.60;73.30;;;;;;5080260;28;19927;-82
2022/10/26 07:52:31;;;;;;;;;;;14.60;73.30;;;;;;5103766;28;19912;-80
2022/10/26 07:54:57;;;;;;;;;;;14.60;73.90;;;;;;5100581;28;19915;-81
2022/10/26 07:57:22;;;;;;;;;;;14.60;73.30;;;;;;5092422;28;19961;-82
2022/10/26 07:59:48;;;;;;;;;;;14.70;73.40;;;;;;5088334;28;19923;-79
2022/10/26 08:02:14;;;;;;;;;;;14.60;73.30;;;;;;5105324;27;19908;-81
2022/10/26 08:04:39;;;;;;;;;;;14.70;73.40;;;;;;5109313;28;20280;-81
2022/10/26 08:07:05;;;;;;;;;;;14.70;73.40;;;;;;5104404;28;19932;-79
2022/10/26 08:09:30;;;;;;;;;;;14.70;73.40;;;;;;5107646;28;19920;-79
2022/10/26 08:11:56;;;;;;;;;;;14.70;73.40;;;;;;5099195;28;20015;-81
2022/10/26 08:14:21;;;;;;;;;;;14.70;73.40;;;;;;5103686;28;19915;-81
2022/10/26 08:16:51;;;;;;;;;;;14.70;73.40;;;;;;5102236;28;19916;-81
2022/10/26 08:19:17;;;;;;;;;;;14.70;73.40;;;;;;5091335;28;19917;-82
2022/10/26 08:21:43;;;;;;;;;;;14.70;73.50;;;;;;5098196;28;19939;-81
2022/10/26 08:24:08;;;;;;;;;;;14.70;73.50;;;;;;5097773;28;20348;-80
2022/10/26 08:26:34;;;;;;;;;;;14.80;73.50;;;;;;5094009;28;19930;-81
2022/10/26 08:29:00;;;;;;;;;;;14.80;73.50;;;;;;5081639;28;20297;-81
2022/10/26 08:31:25;;;;;;;;;;;14.80;73.50;;;;;;5087170;28;19922;-80
2022/10/26 08:33:51;;;;;;;;;;;14.80;73.50;;;;;;5086622;28;20012;-81
2022/10/26 08:36:21;;;;;;;;;;;14.80;73.50;;;;;;5075414;28;20278;-81
2022/10/26 08:38:47;;;;;;;;;;;14.80;73.50;;;;;;5087713;28;20301;-81
2022/10/26 08:41:13;;;;;;;;;;;14.90;73.50;;;;;;5087704;28;19916;-81
2022/10/26 08:43:46;;;;;;;;;;;14.90;73.60;;;;;;5100669;28;20383;-81
2022/10/26 08:46:18;;;;;;;;;;;14.90;73.60;;;;;;5100325;28;19995;-81
2022/10/26 08:48:48;;;;;;;;;;;14.90;73.50;;;;;;5084601;28;19912;-81
2022/10/26 08:51:17;;;;;;;;;;;14.90;73.50;;;;;;5102808;28;19912;-81
2022/10/26 08:53:45;;;;;;;;;;;14.90;73.50;;;;;;5094435;28;20264;-81
2022/10/26 08:56:11;;;;;;;;;;;14.90;73.50;;;;;;5099245;28;20355;-82
2022/10/26 08:58:39;;;;;;;;;;;15.00;73.50;;;;;;5100093;28;19948;-81
2022/10/26 09:01:06;;;;;;;;;;;15.00;73.50;;;;;;5099612;28;20356;-82
2022/10/26 09:03:32;;;;;;;;;;;15.00;73.50;;;;;;5103054;28;20010;-81
2022/10/26 09:06:03;;;;;;;;;;;15.10;73.50;;;;;;5097532;28;20016;-81
2022/10/26 09:08:48;;;;;;;;;;;15.10;73.50;;;;;;5098402;28;19945;-82
2022/10/26 09:11:26;;;;;;;;;;;15.20;73.50;;;;;;5097063;28;20303;-81
2022/10/26 09:13:57;;;;;;;;;;;15.20;73.40;;;;;;5095644;28;20007;-82
2022/10/26 09:16:26;;;;;;;;;;;15.20;73.40;;;;;;5094513;28;20372;-79
2022/10/26 09:19:15;;;;;;;;;;;15.30;73.40;;;;;;5086741;28;19914;-80
2022/10/26 09:21:57;;;;;;;;;;;15.30;73.40;;;;;;5082692;28;19951;-79
2022/10/26 09:24:33;;;;;;;;;;;15.40;73.40;;;;;;5107445;28;19916;-78
2022/10/26 09:27:10;;;;;;;;;;;15.40;73.40;;;;;;5090809;28;19969;-79
2022/10/26 09:29:42;;;;;;;;;;;15.50;73.40;;;;;;5102845;28;19955;-79
2022/10/26 09:32:13;;;;;;;;;;;15.50;73.40;;;;;;5097054;28;19919;-79
2022/10/26 09:34:48;;;;;;;;;;;15.50;73.30;;;;;;5091420;28;19970;-79
2022/10/26 09:37:23;;;;;;;;;;;15.60;73.40;;;;;;5092155;28;19979;-79
2022/10/26 09:39:58;;;;;;;;;;;15.70;73.40;;;;;;5089229;28;20279;-79
2022/10/26 09:42:30;;;;;;;;;;;15.70;73.40;;;;;;5102915;28;19912;-79
2022/10/26 09:45:02;;;;;;;;;;;15.80;73.40;;;;;;5104198;28;20425;-79
2022/10/26 09:47:38;;;;;;;;;;;15.80;73.40;;;;;;5104886;28;19928;-81
2022/10/26 09:50:21;;;;;;;;;;;15.90;73.60;;;;;;5100670;28;19912;-79
2022/10/26 09:52:47;;;;;;;;;;;15.90;73.50;;;;;;5093204;28;19912;-79
2022/10/26 09:55:13;;;;;;;;;;;16.00;73.60;;;;;;5108908;28;19920;-80
2022/10/26 09:57:41;;;;;;;;;;;16.00;73.60;;;;;;5091625;28;19934;-79
2022/10/26 10:00:11;;;;;;;;;;;16.10;73.80;;;;;;5098250;28;19916;-79
2022/10/26 10:02:38;;;;;;;;;;;16.10;73.80;;;;;;5102380;28;20406;-79
2022/10/26 10:05:19;;;;;;;;;;;16.20;73.90;;;;;;5101188;28;19907;-79
2022/10/26 10:07:45;;;;;;;;;;;16.30;74.00;;;;;;5088223;28;20007;-80
2022/10/26 10:10:21;;;;;;;;;;;16.30;74.10;;;;;;5078525;28;19995;-80
2022/10/26 10:12:49;;;;;;;;;;;16.30;74.10;;;;;;5095894;28;19913;-80
2022/10/26 10:15:17;;;;;;;;;;;16.40;74.20;;;;;;5091742;28;19944;-78
2022/10/26 10:17:45;;;;;;;;;;;16.40;74.30;;;;;;5090458;28;20477;-80
2022/10/26 10:20:16;;;;;;;;;;;16.50;74.40;;;;;;5090606;28;19953;-79
2022/10/26 10:22:52;;;;;;;;;;;16.50;74.40;;;;;;5098763;28;19973;-81
2022/10/26 10:25:22;;;;;;;;;;;16.60;74.50;;;;;;5086617;28;19959;-80
2022/10/26 10:27:52;;;;;;;;;;;16.60;74.60;;;;;;5090836;28;19991;-82
2022/10/26 10:30:21;;;;;;;;;;;16.70;74.70;;;;;;5077007;28;19932;-81
2022/10/26 10:33:02;;;;;;;;;;;16.70;74.70;;;;;;5090606;28;19916;-81
2022/10/26 10:35:28;;;;;;;;;;;16.80;74.80;;;;;;5076676;28;19920;-82
2022/10/26 10:37:54;;;;;;;;;;;16.90;75.00;;;;;;5089697;28;19920;-81
2022/10/26 10:40:21;;;;;;;;;;;16.90;75.00;;;;;;5093672;28;19984;-82
2022/10/26 10:42:47;;;;;;;;;;;16.90;75.00;;;;;;5104779;28;19904;-82
2022/10/26 10:45:19;;;;;;;;;;;17.00;75.10;;;;;;5083124;28;20388;-82
2022/10/26 10:47:57;;;;;;;;;;;17.00;75.10;;;;;;5105332;27;20273;-82
2022/10/26 10:50:23;;;;;;;;;;;17.00;75.10;;;;;;5096053;28;19922;-81
2022/10/26 10:52:48;;;;;;;;;;;17.10;75.20;;;;;;5054718;28;19908;-82
2022/10/26 10:55:14;;;;;;;;;;;17.10;75.30;;;;;;5084884;28;19938;-82
2022/10/26 10:57:52;;;;;;;;;;;17.20;75.40;;;;;;5082076;28;20263;-82
2022/10/26 11:00:18;;;;;;;;;;;17.20;75.40;;;;;;5098442;28;19920;-82
2022/10/26 11:03:03;;;;;;;;;;;17.20;75.40;;;;;;5071289;28;20003;-81
2022/10/26 11:05:44;;;;;;;;;;;17.30;75.40;;;;;;5098851;28;19948;-81
2022/10/26 11:08:25;;;;;;;;;;;17.30;75.50;;;;;;5083584;28;19951;-82
2022/10/26 11:11:07;;;;;;;;;;;17.40;75.60;;;;;;5077814;28;19934;-82
2022/10/26 11:13:46;;;;;;;;;;;17.40;75.60;;;;;;5102582;28;20022;-84
2022/10/26 11:16:17;;;;;;;;;;;17.50;75.60;;;;;;5087718;28;19916;-82
2022/10/26 11:18:54;;;;;;;;;;;17.50;75.60;;;;;;5093212;28;19916;-82
2022/10/26 11:21:27;;;;;;;;;;;17.50;75.60;;;;;;5087299;28;19916;-83
2022/10/26 11:24:12;;;;;;;;;;;17.50;75.60;;;;;;5082459;28;19920;-82
2022/10/26 11:26:40;;;;;;;;;;;17.60;75.70;;;;;;5080157;28;19927;-82
2022/10/26 11:29:16;;;;;;;;;;;17.70;75.70;;;;;;5099117;28;20376;-81
2022/10/26 11:31:48;;;;;;;;;;;17.60;75.60;;;;;;5106684;28;19950;-82
2022/10/26 11:34:30;;;;;;;;;;;17.70;75.70;;;;;;5090466;28;20136;-82
2022/10/26 11:37:01;;;;;;;;;;;17.70;75.70;;;;;;5087635;28;19912;-82
2022/10/26 11:39:26;;;;;;;;;;;17.80;75.70;;;;;;5099323;28;20391;-83
2022/10/26 11:41:54;;;;;;;;;;;17.80;75.60;;;;;;5093523;28;19912;-81
2022/10/26 11:44:23;;;;;;;;;;;17.80;75.60;;;;;;5097846;28;19957;-83
2022/10/26 11:46:54;;;;;;;;;;;17.90;75.70;;;;;;5084365;28;19913;-83
2022/10/26 11:49:37;;;;;;;;;;;17.90;75.70;;;;;;5087776;28;19943;-82
2022/10/26 11:52:16;;;;;;;;;;;17.90;75.70;;;;;;5108809;28;19969;-82
2022/10/26 11:54:48;;;;;;;;;;;18.00;75.70;;;;;;5113453;27;19919;-82
2022/10/26 11:57:15;;;;;;;;;;;18.00;75.70;;;;;;5112411;27;20020;-81
2022/10/26 11:59:44;;;;;;;;;;;18.10;75.70;;;;;;5098996;28;19927;-81
2022/10/26 12:02:23;;;;;;;;;;;18.10;75.70;;;;;;5107535;28;19913;-83
2022/10/26 12:04:51;;;;;;;;;;;18.10;75.70;;;;;;5105645;28;19916;-82
2022/10/26 12:07:43;;;;;;;;;;;18.20;75.70;;;;;;5085897;28;19952;-83
2022/10/26 12:10:22;;;;;;;;;;;18.20;75.70;;;;;;5086667;28;19913;-81
2022/10/26 12:13:09;;;;;;;;;;;18.20;75.60;;;;;;5104980;27;20011;-82
2022/10/26 12:15:47;;;;;;;;;;;18.30;75.70;;;;;;5110441;27;19919;-81
2022/10/26 12:18:16;;;;;;;;;;;18.30;75.60;;;;;;5098829;28;19920;-81
2022/10/26 12:20:50;;;;;;;;;;;18.30;75.60;;;;;;5087503;28;19909;-82
2022/10/26 12:23:16;;;;;;;;;;;18.40;75.60;;;;;;5097962;28;19915;-82
2022/10/26 12:25:42;;;;;;;;;;;18.40;75.60;;;;;;5084309;28;20285;-82
2022/10/26 12:28:27;;;;;;;;;;;18.50;75.60;;;;;;5085520;28;19969;-80
2022/10/26 12:31:13;;;;;;;;;;;18.50;75.60;;;;;;5101922;28;19942;-81
2022/10/26 12:33:49;;;;;;;;;;;18.50;75.60;;;;;;5103420;28;19912;-82
2022/10/26 12:36:33;;;;;;;;;;;18.60;75.60;;;;;;5093875;28;19947;-82
2022/10/26 12:38:59;;;;;;;;;;;18.60;75.60;;;;;;5088325;28;19908;-81
2022/10/26 12:41:25;;;;;;;;;;;18.60;75.60;;;;;;5087865;28;19916;-83
2022/10/26 12:43:54;;;;;;;;;;;18.60;75.60;;;;;;5086658;28;20001;-82
2022/10/26 12:46:20;;;;;;;;;;;18.70;75.60;;;;;;5097011;28;19919;-83
2022/10/26 12:48:49;;;;;;;;;;;18.70;75.60;;;;;;5093216;28;20253;-81
2022/10/26 12:51:18;;;;;;;;;;;18.80;75.60;;;;;;5079993;28;19967;-82
2022/10/26 12:53:49;;;;;;;;;;;18.80;75.60;;;;;;5086733;28;19999;-82
2022/10/26 12:56:18;;;;;;;;;;;18.80;75.60;;;;;;5096241;28;19954;-81
2022/10/26 12:58:56;;;;;;;;;;;18.90;75.60;;;;;;5109358;28;19908;-82
2022/10/26 13:01:40;;;;;;;;;;;18.90;75.70;;;;;;5097700;28;19916;-81
2022/10/26 13:04:18;;;;;;;;;;;18.90;75.60;;;;;;5107916;28;19912;-82
2022/10/26 13:06:53;;;;;;;;;;;18.90;75.60;;;;;;5105094;27;19927;-82
2022/10/26 13:09:24;;;;;;;;;;;18.90;75.60;;;;;;5096741;28;19919;-81
2022/10/26 13:11:52;;;;;;;;;;;19.00;75.60;;;;;;5096748;28;20044;-83
2022/10/26 13:14:40;;;;;;;;;;;19.00;75.60;;;;;;5098901;28;19908;-82
2022/10/26 13:17:16;;;;;;;;;;;19.00;75.60;;;;;;5087903;28;19919;-82
2022/10/26 13:19:45;;;;;;;;;;;19.10;75.70;;;;;;5109979;27;20669;-83
2022/10/26 13:22:15;;;;;;;;;;;19.10;75.60;;;;;;5087655;28;19912;-82
2022/10/26 13:24:46;;;;;;;;;;;19.10;75.60;;;;;;5087649;28;19926;-82
2022/10/26 13:27:11;;;;;;;;;;;19.10;75.60;;;;;;5090424;28;20559;-82
2022/10/26 13:29:55;;;;;;;;;;;19.10;75.60;;;;;;5088953;28;19928;-82
2022/10/26 13:32:21;;;;;;;;;;;19.20;75.60;;;;;;5084221;28;19912;-83
2022/10/26 13:34:47;;;;;;;;;;;19.20;75.50;;;;;;5108512;27;19915;-82
2022/10/26 13:37:19;;;;;;;;;;;19.30;75.50;;;;;;5085372;28;20009;-82
2022/10/26 13:39:46;;;;;;;;;;;19.30;75.50;;;;;;5093538;28;20057;-83
2022/10/26 13:42:14;;;;;;;;;;;19.30;75.50;;;;;;5100343;28;19911;-82
2022/10/26 13:44:50;;;;;;;;;;;19.30;75.40;;;;;;5095436;28;19912;-81
2022/10/26 13:47:45;;;;;;;;;;;19.40;75.40;;;;;;5099751;28;20367;-82
2022/10/26 13:50:14;;;;;;;;;;;19.40;75.30;;;;;;5083536;28;20042;-82
2022/10/26 13:52:42;;;;;;;;;;;19.40;75.30;;;;;;5082599;28;19942;-82
2022/10/26 13:55:17;;;;;;;;;;;19.40;75.30;;;;;;5091773;28;20288;-82
2022/10/26 13:57:47;;;;;;;;;;;19.40;75.20;;;;;;5100382;28;19985;-82
2022/10/26 14:00:18;;;;;;;;;;;19.50;75.30;;;;;;5079546;28;19912;-82
2022/10/26 14:02:43;;;;;;;;;;;19.50;75.20;;;;;;5095320;28;19916;-82
2022/10/26 14:05:13;;;;;;;;;;;19.50;75.10;;;;;;5086655;28;19969;-81
2022/10/26 14:07:56;;;;;;;;;;;19.50;75.10;;;;;;5099482;28;19920;-83
2022/10/26 14:10:39;;;;;;;;;;;19.50;75.00;;;;;;5089033;28;20402;-82
2022/10/26 14:13:09;;;;;;;;;;;19.50;75.00;;;;;;5082564;28;19912;-82
2022/10/26 14:15:35;;;;;;;;;;;19.60;75.10;;;;;;5089325;28;19912;-83
2022/10/26 14:18:03;;;;;;;;;;;19.60;75.00;;;;;;5102168;28;20269;-82
2022/10/26 14:20:29;;;;;;;;;;;19.60;75.00;;;;;;5101135;28;19912;-81
2022/10/26 14:22:55;;;;;;;;;;;19.60;74.90;;;;;;5094794;28;19989;-82
2022/10/26 14:25:21;;;;;;;;;;;19.60;74.90;;;;;;5100947;28;19959;-83
2022/10/26 14:27:46;;;;;;;;;;;19.60;74.80;;;;;;5104150;28;19990;-82
2022/10/26 14:30:21;;;;;;;;;;;19.70;74.80;;;;;;5089331;28;19924;-82